Time;durP1;ratioP1;P1;durP2;ratioP2;P2;SDS_P1;SDS_P2;PMS_P1;PMS_P2;Temp;Humidity;BMP_temperature;BMP_pressure;BME280_temperature;BME280_humidity;BME280_pressure;Samples;Min_cycle;Max_cycle;Signal;HPM_P1;HPM_P2
2022/08/20 00:01:29;;;;;;;7.22;4.60;;;19.30;99.90;;;;;;5030912;28;20049;-49
2022/08/20 00:04:33;;;;;;;14.20;5.40;;;19.20;99.90;;;;;;5030944;28;20404;-47
2022/08/20 00:07:37;;;;;;;10.93;4.72;;;19.10;99.90;;;;;;5030889;28;20056;-51
2022/08/20 00:10:44;;;;;;;11.20;4.93;;;19.20;99.90;;;;;;5030839;28;20048;-49
2022/08/20 00:13:53;;;;;;;12.35;4.30;;;19.20;99.90;;;;;;5030538;28;20060;-48
2022/08/20 00:16:58;;;;;;;14.95;4.60;;;19.10;99.90;;;;;;5030751;28;20424;-49
2022/08/20 00:20:06;;;;;;;7.00;4.57;;;19.00;99.90;;;;;;5030674;28;20396;-48
2022/08/20 00:23:11;;;;;;;12.75;5.07;;;19.00;99.90;;;;;;5030350;28;20256;-48
2022/08/20 00:26:16;;;;;;;12.55;5.60;;;19.00;99.90;;;;;;5030701;28;20045;-48
2022/08/20 00:29:21;;;;;;;10.80;5.60;;;19.00;99.90;;;;;;5029661;28;20436;-49
2022/08/20 00:32:25;;;;;;;10.23;5.05;;;19.00;99.90;;;;;;5030265;28;20037;-48
2022/08/20 00:35:32;;;;;;;16.40;5.68;;;18.90;99.90;;;;;;5029993;28;20056;-49
2022/08/20 00:38:42;;;;;;;13.60;7.35;;;18.90;99.90;;;;;;5030300;28;20041;-48
2022/08/20 00:41:46;;;;;;;13.85;6.95;;;18.90;99.90;;;;;;5029524;28;20060;-48
2022/08/20 00:44:50;;;;;;;11.57;5.72;;;19.00;99.90;;;;;;5030078;28;20052;-51
2022/08/20 00:47:54;;;;;;;9.60;5.15;;;18.90;99.90;;;;;;5030101;28;20048;-49
2022/08/20 00:51:05;;;;;;;23.67;6.18;;;18.90;99.90;;;;;;5029749;28;20048;-49
2022/08/20 00:54:16;;;;;;;8.02;5.40;;;18.80;99.90;;;;;;5029636;28;20519;-48
2022/08/20 00:57:24;;;;;;;12.20;5.80;;;18.80;99.90;;;;;;5030028;28;20033;-50
2022/08/20 01:00:33;;;;;;;10.80;5.40;;;18.80;99.90;;;;;;5030140;28;20041;-49
2022/08/20 01:03:37;;;;;;;8.50;5.97;;;18.70;99.90;;;;;;5029362;28;20056;-50
2022/08/20 01:06:41;;;;;;;11.40;6.00;;;18.70;99.90;;;;;;5030022;28;20423;-49
2022/08/20 01:09:46;;;;;;;14.85;6.90;;;18.70;99.90;;;;;;5029784;28;20048;-49
2022/08/20 01:12:52;;;;;;;11.18;5.43;;;18.70;99.90;;;;;;5029581;28;20064;-52
2022/08/20 01:15:58;;;;;;;8.88;5.72;;;18.60;99.90;;;;;;5029553;28;20057;-50
2022/08/20 01:19:03;;;;;;;10.38;5.93;;;18.60;99.90;;;;;;5029826;28;20332;-49
2022/08/20 01:25:37;;;;;;;10.90;4.85;;;18.60;99.90;;;;;;5030210;28;20057;-52
2022/08/20 01:28:49;;;;;;;7.82;4.13;;;18.60;99.90;;;;;;5030031;28;20503;-49
2022/08/20 01:31:59;;;;;;;6.80;4.63;;;18.60;99.90;;;;;;5029865;28;20053;-50
2022/08/20 01:35:05;;;;;;;7.55;4.72;;;18.60;99.90;;;;;;5028535;28;20052;-51
2022/08/20 01:38:09;;;;;;;10.07;3.78;;;18.70;99.90;;;;;;5029472;28;20412;-52
2022/08/20 01:41:24;;;;;;;13.88;3.30;;;18.60;99.90;;;;;;5030934;28;20041;-50
2022/08/20 01:44:30;;;;;;;4.68;2.78;;;18.60;99.90;;;;;;5032246;28;20053;-49
2022/08/20 01:47:34;;;;;;;5.25;2.22;;;18.60;99.90;;;;;;5032562;28;20408;-49
2022/08/20 01:50:43;;;;;;;5.53;2.85;;;18.60;99.90;;;;;;5033544;28;20052;-47
2022/08/20 01:53:50;;;;;;;5.90;2.38;;;18.60;99.90;;;;;;5032619;28;20407;-48
2022/08/20 01:57:05;;;;;;;11.18;2.50;;;18.50;99.90;;;;;;5033442;28;20412;-49
2022/08/20 02:00:14;;;;;;;9.02;3.10;;;18.50;99.90;;;;;;5033127;28;20044;-47
2022/08/20 02:03:18;;;;;;;16.75;5.65;;;18.40;99.90;;;;;;5032780;28;20062;-48
2022/08/20 02:06:24;;;;;;;15.13;5.50;;;18.20;99.90;;;;;;5033018;28;20388;-48
2022/08/20 02:09:32;;;;;;;13.25;7.85;;;18.10;99.90;;;;;;5032897;28;20037;-48
2022/08/20 02:12:35;;;;;;;13.00;7.72;;;17.90;99.90;;;;;;5032724;28;20028;-50
2022/08/20 02:15:40;;;;;;;6.93;6.00;;;17.90;99.90;;;;;;5032672;28;20408;-49
2022/08/20 02:18:44;;;;;;;12.73;6.32;;;17.90;99.90;;;;;;5032540;28;20052;-49
2022/08/20 02:21:54;;;;;;;11.35;7.18;;;17.90;99.90;;;;;;5032917;28;20358;-48
2022/08/20 02:24:58;;;;;;;12.77;6.82;;;17.90;99.90;;;;;;5032524;28;20113;-49
2022/08/20 02:28:12;;;;;;;15.35;8.10;;;17.80;99.90;;;;;;5032465;28;20516;-49
2022/08/20 02:31:18;;;;;;;9.73;5.95;;;17.70;99.90;;;;;;5032602;28;20530;-48
2022/08/20 02:34:22;;;;;;;13.98;6.43;;;17.70;99.90;;;;;;5031870;28;20057;-49
2022/08/20 02:37:27;;;;;;;11.48;7.57;;;17.70;99.90;;;;;;5032627;28;20049;-49
2022/08/20 02:40:31;;;;;;;13.45;6.88;;;17.70;99.90;;;;;;5032525;28;20416;-48
2022/08/20 02:43:36;;;;;;;7.05;5.88;;;17.70;99.90;;;;;;5032247;28;20040;-52
2022/08/20 02:46:40;;;;;;;13.48;5.90;;;17.70;99.90;;;;;;5032620;28;20064;-49
2022/08/20 02:49:45;;;;;;;9.90;5.43;;;17.70;99.90;;;;;;5032511;28;20048;-49
2022/08/20 02:52:51;;;;;;;7.95;4.63;;;17.90;99.90;;;;;;5031343;28;20049;-48
2022/08/20 02:55:56;;;;;;;13.23;4.22;;;17.90;99.90;;;;;;5032141;28;20056;-48
2022/08/20 02:59:00;;;;;;;10.68;4.65;;;18.00;99.90;;;;;;5032025;28;20049;-49
2022/08/20 03:02:04;;;;;;;8.27;4.30;;;18.00;99.90;;;;;;5032044;28;20036;-48
2022/08/20 03:05:09;;;;;;;6.78;4.40;;;18.10;99.90;;;;;;5031190;28;20049;-48
2022/08/20 03:08:13;;;;;;;11.20;4.45;;;18.10;99.90;;;;;;5031879;28;20044;-50
2022/08/20 03:11:19;;;;;;;13.05;5.20;;;18.20;99.90;;;;;;5032057;28;20044;-49
2022/08/20 03:14:23;;;;;;;7.10;4.10;;;18.20;99.90;;;;;;5030747;28;20113;-50
2022/08/20 03:17:27;;;;;;;13.63;4.20;;;18.30;99.90;;;;;;5031616;28;20037;-49
2022/08/20 03:20:31;;;;;;;11.95;3.80;;;18.40;99.90;;;;;;5031366;28;20112;-49
2022/08/20 03:23:36;;;;;;;9.95;3.70;;;18.50;99.90;;;;;;5031323;28;20041;-50
2022/08/20 03:26:41;;;;;;;8.32;3.78;;;18.60;99.90;;;;;;5031505;28;20052;-49
2022/08/20 03:29:45;;;;;;;9.05;3.88;;;18.60;99.90;;;;;;5031559;28;20025;-48
2022/08/20 03:32:49;;;;;;;10.52;3.53;;;18.60;99.90;;;;;;5031484;28;20044;-49
2022/08/20 03:35:54;;;;;;;8.32;3.40;;;18.60;99.90;;;;;;5031389;28;20048;-48
2022/08/20 03:39:01;;;;;;;6.53;3.22;;;18.50;99.90;;;;;;5031437;28;20053;-49
2022/08/20 03:42:05;;;;;;;6.65;2.75;;;18.50;99.90;;;;;;5030742;28;20064;-51
2022/08/20 03:45:12;;;;;;;135.73;9.02;;;18.50;99.90;;;;;;5030903;28;20343;-48
2022/08/20 03:48:18;;;;;;;472.98;20.13;;;18.10;99.90;;;;;;5031332;28;20052;-49
2022/08/20 03:51:22;;;;;;;429.67;24.52;;;17.60;99.90;;;;;;5031305;28;20048;-48
2022/08/20 03:54:26;;;;;;;958.95;45.83;;;17.50;99.90;;;;;;5030562;28;20044;-48
2022/08/20 03:57:30;;;;;;;136.30;11.10;;;17.50;99.90;;;;;;5031133;28;20064;-49
2022/08/20 04:00:41;;;;;;;439.15;20.38;;;17.50;99.90;;;;;;5031347;28;20511;-49
2022/08/20 04:03:46;;;;;;;331.33;20.23;;;17.50;99.90;;;;;;5031102;28;20044;-49
2022/08/20 04:06:49;;;;;;;42.85;6.68;;;17.50;99.90;;;;;;5031522;28;20045;-49
2022/08/20 04:09:55;;;;;;;218.57;11.48;;;17.50;99.90;;;;;;5031286;28;20048;-48
2022/08/20 04:12:59;;;;;;;75.30;7.10;;;17.60;99.90;;;;;;5031037;28;20113;-48
2022/08/20 04:16:08;;;;;;;9.88;5.00;;;17.50;99.90;;;;;;5030244;28;20040;-48
2022/08/20 04:19:12;;;;;;;51.20;8.07;;;17.50;99.90;;;;;;5030935;28;20044;-49
2022/08/20 04:22:17;;;;;;;23.52;8.02;;;17.40;99.90;;;;;;5030623;28;20116;-49
2022/08/20 04:25:21;;;;;;;23.20;8.27;;;17.30;99.90;;;;;;5030500;28;20117;-50
2022/08/20 04:28:28;;;;;;;132.65;12.02;;;17.30;99.90;;;;;;5030955;28;20048;-49
2022/08/20 04:31:33;;;;;;;231.95;16.98;;;17.40;99.90;;;;;;5030422;28;20048;-50
2022/08/20 04:34:38;;;;;;;143.55;16.15;;;17.30;99.90;;;;;;5030057;28;20448;-49
2022/08/20 04:37:42;;;;;;;44.28;11.63;;;17.40;99.90;;;;;;5030344;28;20040;-49
2022/08/20 04:40:54;;;;;;;48.10;14.77;;;17.40;99.90;;;;;;5030193;28;20052;-48
2022/08/20 04:43:59;;;;;;;50.83;14.45;;;17.40;99.90;;;;;;5030211;28;20048;-49
2022/08/20 04:47:06;;;;;;;655.75;36.13;;;17.40;99.90;;;;;;5030263;28;20409;-49
2022/08/20 04:50:11;;;;;;;283.33;23.80;;;17.40;99.90;;;;;;5029986;28;20060;-49
2022/08/20 04:53:18;;;;;;;27.45;12.48;;;17.30;99.90;;;;;;5029683;28;20064;-51
2022/08/20 04:56:37;;;;;;;97.95;14.23;;;17.40;99.90;;;;;;5029954;28;20056;-49
2022/08/20 04:59:42;;;;;;;439.70;27.17;;;17.40;99.90;;;;;;5029905;28;20400;-48
2022/08/20 05:02:46;;;;;;;323.80;20.08;;;17.50;99.90;;;;;;5029914;28;20425;-49
2022/08/20 05:05:50;;;;;;;450.73;23.30;;;17.30;99.90;;;;;;5029645;28;20057;-49
2022/08/20 05:08:56;;;;;;;376.73;18.65;;;17.30;99.90;;;;;;5029692;28;20055;-48
2022/08/20 05:12:00;;;;;;;347.45;18.33;;;17.30;99.90;;;;;;5029792;28;20052;-48
2022/08/20 05:15:05;;;;;;;558.75;24.75;;;17.40;99.90;;;;;;5028537;28;20049;-51
2022/08/20 05:18:08;;;;;;;156.68;11.80;;;17.50;99.90;;;;;;5029750;28;20051;-49
2022/08/20 05:21:12;;;;;;;105.97;11.07;;;17.50;99.90;;;;;;5040129;28;20040;-51
2022/08/20 05:24:16;;;;;;;97.57;10.60;;;17.60;99.90;;;;;;5029533;28;20060;-49
2022/08/20 05:27:23;;;;;;;163.30;9.93;;;17.80;99.90;;;;;;5032709;28;20045;-48
2022/08/20 05:30:32;;;;;;;155.98;11.93;;;17.80;99.90;;;;;;5029796;28;20515;-48
2022/08/20 05:33:37;;;;;;;77.95;9.70;;;17.90;99.90;;;;;;5029759;28;20084;-52
2022/08/20 05:36:46;;;;;;;90.88;9.45;;;18.10;99.90;;;;;;5029932;28;20061;-49
2022/08/20 05:39:50;;;;;;;176.02;10.90;;;18.30;99.90;;;;;;5029636;28;20068;-48
2022/08/20 05:42:54;;;;;;;23.67;7.53;;;18.50;99.90;;;;;;5029366;28;20040;-48
2022/08/20 05:45:58;;;;;;;20.80;8.30;;;18.90;99.90;;;;;;5029409;28;20044;-52
2022/08/20 05:49:02;;;;;;;14.25;7.57;;;20.30;99.90;;;;;;5029565;28;20424;-49
2022/08/20 05:52:06;;;;;;;11.70;6.18;;;21.90;99.90;;;;;;5029263;28;20048;-48
2022/08/20 05:55:12;;;;;;;10.90;5.90;;;23.50;99.90;;;;;;5029027;28;20045;-49
2022/08/20 05:58:21;;;;;;;12.55;6.15;;;24.90;99.90;;;;;;5029228;28;20048;-50
2022/08/20 06:01:25;;;;;;;23.75;8.60;;;26.70;99.90;;;;;;5029651;28;20523;-52
2022/08/20 06:04:30;;;;;;;18.55;8.65;;;25.60;99.90;;;;;;5028959;28;20072;-53
2022/08/20 06:07:34;;;;;;;66.72;10.27;;;22.70;99.90;;;;;;5029074;28;20052;-53
2022/08/20 06:10:40;;;;;;;65.85;10.18;;;22.00;99.90;;;;;;5029271;28;20056;-53
2022/08/20 06:13:44;;;;;;;40.70;10.20;;;21.20;99.90;;;;;;5029162;28;20064;-52
2022/08/20 06:16:48;;;;;;;244.20;16.15;;;20.80;99.90;;;;;;5027806;28;20048;-49
2022/08/20 06:19:52;;;;;;;27.20;10.13;;;19.90;99.90;;;;;;5029353;28;20408;-50
2022/08/20 06:22:55;;;;;;;160.23;14.73;;;20.00;99.90;;;;;;5029100;28;20045;-50
2022/08/20 06:25:59;;;;;;;94.95;14.80;;;19.90;99.90;;;;;;5028058;28;20116;-53
2022/08/20 06:29:05;;;;;;;144.02;14.70;;;20.00;99.90;;;;;;5031971;28;20049;-53
2022/08/20 06:32:10;;;;;;;18.08;11.27;;;19.80;99.90;;;;;;5032576;28;20522;-50
2022/08/20 06:35:14;;;;;;;69.60;11.85;;;19.80;99.90;;;;;;5032163;28;20044;-53
2022/08/20 06:38:19;;;;;;;47.22;12.43;;;19.80;99.90;;;;;;5032307;28;20044;-53
2022/08/20 06:41:23;;;;;;;71.10;11.93;;;19.80;99.90;;;;;;5031873;28;20052;-51
2022/08/20 06:44:27;;;;;;;21.48;11.75;;;19.80;99.90;;;;;;5032366;28;20032;-53
2022/08/20 06:47:32;;;;;;;25.80;12.25;;;20.00;99.90;;;;;;5031966;28;20052;-49
2022/08/20 06:50:40;;;;;;;17.50;10.75;;;20.20;99.90;;;;;;5032437;28;20056;-51
2022/08/20 06:53:44;;;;;;;22.80;11.35;;;20.50;99.90;;;;;;5035246;28;20048;-49
2022/08/20 06:56:48;;;;;;;19.60;9.95;;;20.80;99.90;;;;;;5032100;28;20048;-50
2022/08/20 06:59:54;;;;;;;11.90;8.38;;;21.30;99.90;;;;;;5032496;28;20078;-52
2022/08/20 07:03:01;;;;;;;11.50;7.63;;;22.30;99.90;;;;;;5032284;28;20032;-50
2022/08/20 07:06:06;;;;;;;12.57;8.02;;;22.80;99.90;;;;;;5032048;28;20036;-49
2022/08/20 07:09:10;;;;;;;11.27;7.55;;;23.10;99.90;;;;;;5032268;28;20048;-53
2022/08/20 07:12:14;;;;;;;14.98;8.50;;;23.00;99.90;;;;;;5032153;28;20040;-50
2022/08/20 07:15:21;;;;;;;10.88;7.35;;;23.30;99.90;;;;;;5031168;28;20044;-52
2022/08/20 07:18:25;;;;;;;12.82;7.97;;;24.40;99.90;;;;;;5031829;28;20064;-53
2022/08/20 07:21:29;;;;;;;17.52;8.52;;;25.10;99.90;;;;;;5031769;28;20403;-49
2022/08/20 07:24:33;;;;;;;14.13;8.98;;;25.10;99.90;;;;;;5031797;28;20056;-49
2022/08/20 07:27:37;;;;;;;15.35;9.43;;;24.10;99.90;;;;;;5030846;28;20052;-52
2022/08/20 07:34:04;;;;;;;15.07;7.18;;;25.90;99.90;;;;;;5031838;28;20057;-53
2022/08/20 07:37:09;;;;;;;11.52;8.20;;;27.50;99.90;;;;;;5031667;28;20049;-52
2022/08/20 07:40:17;;;;;;;16.10;7.63;;;29.20;99.90;;;;;;5031513;28;20044;-53
2022/08/20 07:43:24;;;;;;;10.48;8.60;;;26.30;99.90;;;;;;5031550;28;20056;-48
2022/08/20 07:46:30;;;;;;;11.65;8.63;;;24.70;99.90;;;;;;5031573;28;20060;-49
2022/08/20 07:49:37;;;;;;;12.88;8.38;;;23.40;99.90;;;;;;5031137;28;20071;-49
2022/08/20 07:52:42;;;;;;;11.88;7.25;;;23.60;99.90;;;;;;5030744;28;20052;-50
2022/08/20 07:55:46;;;;;;;19.00;10.13;;;23.90;99.90;;;;;;5030815;28;20072;-49
2022/08/20 07:58:54;;;;;;;14.35;8.82;;;23.80;99.90;;;;;;5030514;28;20064;-49
2022/08/20 08:01:57;;;;;;;12.32;8.40;;;24.00;99.90;;;;;;5031000;28;20056;-52
2022/08/20 08:05:03;;;;;;;15.27;8.30;;;25.00;99.90;;;;;;5030798;28;20048;-53
2022/08/20 08:08:11;;;;;;;16.25;9.68;;;25.70;99.90;;;;;;5030289;28;20044;-54
2022/08/20 08:11:15;;;;;;;15.70;8.55;;;25.30;99.90;;;;;;5030634;28;20048;-49
2022/08/20 08:14:25;;;;;;;11.45;6.10;;;26.10;99.90;;;;;;5030302;28;20511;-49
2022/08/20 08:17:30;;;;;;;9.88;6.65;;;27.60;99.90;;;;;;5030328;28;20040;-53
2022/08/20 08:20:41;;;;;;;11.48;5.70;;;28.70;99.90;;;;;;5030861;28;20511;-51
2022/08/20 08:23:45;;;;;;;8.07;5.75;;;31.10;99.90;;;;;;5030488;28;20056;-49
2022/08/20 08:26:51;;;;;;;11.88;6.22;;;31.90;99.90;;;;;;5030555;28;20049;-50
2022/08/20 08:29:55;;;;;;;7.63;6.20;;;29.90;99.90;;;;;;5030432;28;20049;-49
2022/08/20 08:36:21;;;;;;;10.23;5.57;;;30.00;99.90;;;;;;5030271;28;20408;-49
2022/08/20 08:39:25;;;;;;;7.70;5.13;;;29.70;99.90;;;;;;5029935;28;20056;-51
2022/08/20 08:42:45;;;;;;;11.82;5.75;;;31.10;99.90;;;;;;5030090;28;20033;-50
2022/08/20 08:46:03;;;;;;;7.40;5.05;;;31.90;99.90;;;;;;5030393;28;20400;-49
2022/08/20 08:49:11;;;;;;;9.52;5.55;;;31.20;99.90;;;;;;5029914;28;20049;-50
2022/08/20 08:52:22;;;;;;;7.03;5.70;;;31.00;99.90;;;;;;5029623;28;20061;-51
2022/08/20 08:55:28;;;;;;;7.72;5.72;;;29.30;99.90;;;;;;5029663;28;20040;-50
2022/08/20 08:58:34;;;;;;;8.40;4.78;;;29.20;99.90;;;;;;5029800;28;20535;-49
2022/08/20 09:01:48;;;;;;;10.93;5.35;;;28.80;99.90;;;;;;5029957;28;20037;-52
2022/08/20 09:04:55;;;;;;;7.85;3.38;;;29.70;99.90;;;;;;5030017;28;20040;-50
2022/08/20 09:08:02;;;;;;;9.32;4.65;;;31.90;99.90;;;;;;5029440;28;20440;-51
2022/08/20 09:11:09;;;;;;;7.82;4.28;;;33.60;99.90;;;;;;5030067;28;20050;-50
2022/08/20 09:14:13;;;;;;;6.70;3.72;;;34.20;99.90;;;;;;5029680;28;20052;-49
2022/08/20 09:17:20;;;;;;;7.20;3.42;;;34.60;98.90;;;;;;5029952;28;20048;-48
2022/08/20 09:20:24;;;;;;;9.68;3.72;;;33.90;98.80;;;;;;5029571;28;20045;-50
2022/08/20 09:23:28;;;;;;;5.25;2.92;;;34.60;98.60;;;;;;5029621;28;20408;-51
2022/08/20 09:26:32;;;;;;;4.85;2.45;;;36.60;97.30;;;;;;5029858;28;20128;-50
2022/08/20 09:29:36;;;;;;;4.10;1.88;;;39.10;94.00;;;;;;5029802;28;20052;-51
2022/08/20 09:32:42;;;;;;;2.70;2.08;;;40.50;91.50;;;;;;5029894;28;20048;-47
2022/08/20 09:35:45;;;;;;;4.43;2.05;;;41.20;90.00;;;;;;5029922;28;20047;-48
2022/08/20 09:38:49;;;;;;;2.80;1.83;;;42.30;87.30;;;;;;5028706;28;20419;-52
2022/08/20 09:41:53;;;;;;;3.67;1.88;;;40.80;88.10;;;;;;5028906;28;20488;-48
2022/08/20 09:44:58;;;;;;;3.95;1.70;;;42.60;86.70;;;;;;5028627;28;20408;-49
2022/08/20 09:48:03;;;;;;;4.03;1.70;;;44.10;81.20;;;;;;5030458;28;20401;-48
2022/08/20 09:51:08;;;;;;;7.45;1.60;;;44.40;80.00;;;;;;5029942;28;20049;-48
2022/08/20 09:54:11;;;;;;;4.45;1.63;;;43.50;77.80;;;;;;5029422;28;20504;-48
2022/08/20 09:57:16;;;;;;;5.65;1.30;;;44.20;79.80;;;;;;5029715;28;20052;-48
2022/08/20 10:00:19;;;;;;;2.72;1.20;;;44.90;76.70;;;;;;5029639;28;20052;-47
2022/08/20 10:03:23;;;;;;;4.80;1.55;;;45.20;74.80;;;;;;5033051;28;20052;-47
2022/08/20 10:06:27;;;;;;;4.28;1.10;;;44.80;74.80;;;;;;5033461;28;20057;-48
2022/08/20 10:09:33;;;;;;;2.53;1.20;;;44.70;75.90;;;;;;5033276;28;20056;-50
2022/08/20 10:12:37;;;;;;;2.88;1.23;;;45.80;75.90;;;;;;5033301;28;20427;-47
2022/08/20 10:15:41;;;;;;;4.20;1.27;;;45.70;73.40;;;;;;5032698;28;20048;-47
2022/08/20 10:18:48;;;;;;;3.38;1.35;;;45.90;75.00;;;;;;5043301;28;20041;-46
2022/08/20 10:21:53;;;;;;;1.98;1.17;;;46.00;74.30;;;;;;5032946;28;20048;-48
2022/08/20 10:24:57;;;;;;;3.53;1.05;;;46.50;72.60;;;;;;5032621;28;20048;-49
2022/08/20 10:28:02;;;;;;;3.63;1.30;;;47.10;69.80;;;;;;5032660;28;20055;-47
2022/08/20 10:31:10;;;;;;;4.93;1.85;;;42.10;72.70;;;;;;5032217;28;20040;-50
2022/08/20 10:34:14;;;;;;;5.75;1.20;;;40.50;75.00;;;;;;5031627;28;20036;-50
2022/08/20 10:37:22;;;;;;;3.55;1.35;;;42.50;76.40;;;;;;5032522;28;20048;-48
2022/08/20 10:40:26;;;;;;;4.90;1.10;;;44.30;74.20;;;;;;5032443;28;20416;-47
2022/08/20 10:43:30;;;;;;;4.70;1.27;;;44.40;73.20;;;;;;5032168;28;20060;-48
2022/08/20 10:46:34;;;;;;;5.10;1.30;;;43.80;70.30;;;;;;5032092;28;20052;-54
2022/08/20 10:49:38;;;;;;;1.77;1.40;;;40.90;73.70;;;;;;5031802;28;20048;-52
2022/08/20 10:52:42;;;;;;;3.33;0.98;;;41.30;73.40;;;;;;5032202;28;20056;-48
2022/08/20 10:55:46;;;;;;;4.90;1.00;;;42.70;73.60;;;;;;5032133;28;20052;-49
2022/08/20 10:58:50;;;;;;;3.05;1.00;;;44.30;71.20;;;;;;5032180;28;20045;-51
2022/08/20 11:01:54;;;;;;;4.57;1.70;;;44.60;69.70;;;;;;5031979;28;20048;-48
2022/08/20 11:04:58;;;;;;;2.38;0.98;;;44.50;69.50;;;;;;5031750;28;20049;-49
2022/08/20 11:08:03;;;;;;;5.57;1.00;;;44.60;69.20;;;;;;5032528;28;20542;-51
2022/08/20 11:11:07;;;;;;;1.95;0.70;;;45.50;69.50;;;;;;5031664;28;20048;-50
2022/08/20 11:14:11;;;;;;;2.92;1.05;;;45.80;67.70;;;;;;5031060;28;20041;-48
2022/08/20 11:17:29;;;;;;;2.60;1.10;;;45.90;68.00;;;;;;5031916;28;20048;-48
2022/08/20 11:20:34;;;;;;;3.20;0.93;;;46.00;67.70;;;;;;5042275;28;20404;-48
2022/08/20 11:23:38;;;;;;;3.58;1.05;;;46.20;67.20;;;;;;5031644;28;20546;-49
2022/08/20 11:26:44;;;;;;;5.30;1.15;;;46.30;66.70;;;;;;5031583;28;20048;-50
2022/08/20 11:29:48;;;;;;;3.65;0.90;;;44.60;65.50;;;;;;5031893;28;20049;-49
2022/08/20 11:32:53;;;;;;;4.00;0.88;;;45.80;67.30;;;;;;5031822;28;20036;-48
2022/08/20 11:35:57;;;;;;;6.68;0.93;;;44.70;64.80;;;;;;5031667;28;20075;-50
2022/08/20 11:39:00;;;;;;;4.35;1.27;;;43.50;66.00;;;;;;5031652;28;20428;-51
2022/08/20 11:42:05;;;;;;;3.25;1.10;;;42.20;67.30;;;;;;5030721;28;20040;-49
2022/08/20 11:45:10;;;;;;;3.38;0.90;;;42.10;67.10;;;;;;5031145;28;20044;-51
2022/08/20 11:48:14;;;;;;;1.65;0.80;;;42.90;66.90;;;;;;5031389;28;20040;-54
2022/08/20 11:51:18;;;;;;;2.60;0.82;;;43.50;67.40;;;;;;5030934;28;20049;-48
2022/08/20 11:54:22;;;;;;;4.15;0.95;;;44.20;66.00;;;;;;5031154;28;20072;-48
2022/08/20 11:57:29;;;;;;;2.22;1.02;;;43.90;65.20;;;;;;5031002;28;20048;-49
2022/08/20 12:00:35;;;;;;;3.38;0.90;;;43.80;66.70;;;;;;5030675;28;20412;-51
2022/08/20 12:03:39;;;;;;;2.83;1.00;;;43.60;67.20;;;;;;5030647;28;20547;-49
2022/08/20 12:06:43;;;;;;;2.63;0.95;;;44.00;65.60;;;;;;5030746;28;20048;-48
2022/08/20 12:09:48;;;;;;;5.82;0.80;;;44.30;65.30;;;;;;5030954;28;20040;-49
2022/08/20 12:12:52;;;;;;;3.08;1.00;;;45.30;65.30;;;;;;5030619;28;20049;-49
2022/08/20 12:15:56;;;;;;;2.95;1.00;;;45.60;65.90;;;;;;5030870;28;20044;-48
2022/08/20 12:19:00;;;;;;;6.07;0.90;;;44.60;64.90;;;;;;5030277;28;20050;-49
2022/08/20 12:22:04;;;;;;;2.25;0.90;;;44.60;65.20;;;;;;5029574;28;20048;-49
2022/08/20 12:25:08;;;;;;;2.05;1.05;;;45.20;64.40;;;;;;5029602;28;20044;-48
2022/08/20 12:28:13;;;;;;;2.25;0.88;;;44.60;64.30;;;;;;5031017;28;20037;-48
2022/08/20 12:31:18;;;;;;;1.80;0.80;;;43.30;65.20;;;;;;5029952;28;20041;-48
2022/08/20 12:34:21;;;;;;;2.50;0.80;;;44.30;64.90;;;;;;5030350;28;20044;-48
2022/08/20 12:37:28;;;;;;;2.00;0.77;;;44.90;64.20;;;;;;5030463;28;20045;-48
2022/08/20 12:40:34;;;;;;;1.80;0.80;;;45.70;63.70;;;;;;5030018;28;20413;-47
2022/08/20 12:43:37;;;;;;;5.90;0.90;;;45.50;62.80;;;;;;5030125;28;20056;-48
2022/08/20 12:46:41;;;;;;;1.80;0.80;;;45.30;63.90;;;;;;5030123;28;20056;-50
2022/08/20 12:49:48;;;;;;;3.08;1.10;;;44.70;62.90;;;;;;5030536;28;20070;-50
2022/08/20 12:52:52;;;;;;;4.32;1.75;;;42.90;65.40;;;;;;5029866;28;20052;-48
2022/08/20 12:55:56;;;;;;;4.78;1.00;;;42.90;64.90;;;;;;5030311;28;20056;-51
2022/08/20 12:59:01;;;;;;;4.90;0.90;;;42.30;65.10;;;;;;5029700;28;20048;-50
2022/08/20 13:02:05;;;;;;;4.90;1.33;;;42.30;65.70;;;;;;5029710;28;20047;-50
2022/08/20 13:05:11;;;;;;;2.50;0.90;;;42.00;67.10;;;;;;5029570;28;20048;-49
2022/08/20 13:08:17;;;;;;;4.75;1.00;;;41.90;67.00;;;;;;5029808;28;20069;-49
2022/08/20 13:11:22;;;;;;;2.90;1.20;;;41.60;66.00;;;;;;5029596;28;20036;-50
2022/08/20 13:14:26;;;;;;;6.55;1.23;;;41.00;66.20;;;;;;5028884;28;20064;-50
2022/08/20 13:17:30;;;;;;;2.67;1.00;;;40.40;66.30;;;;;;5029643;28;20048;-51
2022/08/20 13:20:35;;;;;;;3.30;1.05;;;40.40;68.20;;;;;;5029726;28;20056;-50
2022/08/20 13:23:38;;;;;;;1.48;1.10;;;40.30;67.10;;;;;;5029527;28;20056;-49
2022/08/20 13:26:43;;;;;;;2.17;1.13;;;40.40;69.10;;;;;;5029580;28;20068;-50
2022/08/20 13:29:49;;;;;;;5.82;1.20;;;38.70;68.00;;;;;;5029745;28;20072;-52
2022/08/20 13:32:53;;;;;;;3.58;1.20;;;38.90;69.70;;;;;;5029464;28;20044;-49
2022/08/20 13:35:57;;;;;;;3.00;1.20;;;38.90;69.50;;;;;;5029770;28;20551;-50
2022/08/20 13:39:03;;;;;;;2.35;1.13;;;38.80;70.30;;;;;;5033845;28;20053;-49
2022/08/20 13:42:08;;;;;;;3.03;1.20;;;38.10;68.90;;;;;;5033242;28;20044;-50
2022/08/20 13:45:13;;;;;;;3.70;1.20;;;38.20;70.00;;;;;;5033448;28;20044;-50
2022/08/20 13:48:17;;;;;;;3.45;1.73;;;36.20;71.70;;;;;;5034672;28;20048;-49
2022/08/20 13:51:21;;;;;;;5.63;1.73;;;36.60;73.70;;;;;;5033598;28;20404;-49
2022/08/20 13:54:25;;;;;;;3.10;1.05;;;36.80;72.60;;;;;;5033628;28;20052;-49
2022/08/20 13:57:29;;;;;;;4.00;1.50;;;37.10;72.30;;;;;;5033683;28;20052;-49
2022/08/20 14:00:35;;;;;;;4.53;1.05;;;37.50;71.70;;;;;;5033530;28;20049;-49
2022/08/20 14:03:39;;;;;;;2.97;1.40;;;37.20;72.00;;;;;;5033074;28;20054;-49
2022/08/20 14:06:43;;;;;;;3.85;1.20;;;37.20;71.40;;;;;;5033545;28;20053;-49
2022/08/20 14:09:51;;;;;;;2.28;1.17;;;37.00;72.60;;;;;;5033481;28;20060;-50
2022/08/20 14:12:55;;;;;;;2.15;1.02;;;36.90;74.00;;;;;;5033241;28;20396;-48
2022/08/20 14:15:59;;;;;;;6.00;1.70;;;36.90;72.80;;;;;;5033130;28;20052;-50
2022/08/20 14:19:03;;;;;;;5.70;1.23;;;36.80;71.90;;;;;;5033347;28;20037;-49
2022/08/20 14:22:07;;;;;;;3.15;1.30;;;36.60;71.80;;;;;;5032690;28;20072;-49
2022/08/20 14:25:13;;;;;;;4.57;1.30;;;36.50;73.50;;;;;;5032678;28;20211;-53
2022/08/20 14:28:23;;;;;;;5.40;1.27;;;36.10;73.10;;;;;;5033068;28;20068;-53
2022/08/20 14:31:27;;;;;;;4.60;1.20;;;35.90;74.00;;;;;;5032833;28;20515;-49
2022/08/20 14:34:31;;;;;;;5.18;1.25;;;35.90;73.40;;;;;;5032252;28;20044;-49
2022/08/20 14:37:39;;;;;;;1.77;1.05;;;35.60;73.40;;;;;;5032629;28;20412;-49
2022/08/20 14:40:43;;;;;;;2.72;1.52;;;35.70;74.20;;;;;;5032181;28;20052;-48
2022/08/20 14:43:48;;;;;;;2.75;1.33;;;35.60;73.10;;;;;;5032122;28;20515;-51
2022/08/20 14:46:52;;;;;;;4.60;1.10;;;35.70;74.00;;;;;;5032226;28;20048;-50
2022/08/20 14:50:01;;;;;;;2.97;1.58;;;35.20;73.30;;;;;;5031438;28;20052;-49
2022/08/20 14:53:06;;;;;;;2.97;1.25;;;35.20;73.70;;;;;;5031997;28;20515;-49
2022/08/20 14:56:10;;;;;;;3.50;1.27;;;35.10;73.70;;;;;;5032422;28;20156;-49
2022/08/20 14:59:14;;;;;;;8.88;1.30;;;35.10;75.10;;;;;;5032260;28;20052;-53
2022/08/20 15:02:18;;;;;;;2.42;1.33;;;33.60;72.00;;;;;;5031935;28;20061;-49
2022/08/20 15:05:22;;;;;;;5.22;1.33;;;33.40;76.80;;;;;;5031996;28;20133;-48
2022/08/20 15:08:26;;;;;;;4.70;1.40;;;33.20;76.50;;;;;;5031352;28;20462;-50
2022/08/20 15:11:30;;;;;;;3.72;1.20;;;33.10;77.60;;;;;;5033068;28;20044;-48
2022/08/20 15:14:34;;;;;;;3.92;1.50;;;33.00;77.80;;;;;;5031746;28;20076;-50
2022/08/20 15:17:48;;;;;;;3.67;1.30;;;33.10;77.80;;;;;;5031846;28;20056;-49
2022/08/20 15:20:52;;;;;;;2.00;1.38;;;32.70;76.50;;;;;;5031929;28;20044;-49
2022/08/20 15:23:56;;;;;;;2.75;1.60;;;32.30;77.20;;;;;;5031754;28;20052;-49
2022/08/20 15:27:17;;;;;;;4.47;1.20;;;32.60;79.10;;;;;;5030972;28;20048;-50
2022/08/20 15:30:22;;;;;;;2.63;1.27;;;32.70;78.40;;;;;;5031656;28;20424;-49
2022/08/20 15:33:26;;;;;;;3.10;1.38;;;32.80;78.20;;;;;;5031189;28;20040;-49
2022/08/20 15:36:30;;;;;;;3.38;1.50;;;32.70;78.20;;;;;;5030836;28;20057;-49
2022/08/20 15:39:35;;;;;;;3.35;1.40;;;32.50;77.90;;;;;;5031477;28;20044;-51
2022/08/20 15:42:39;;;;;;;2.35;1.00;;;32.40;78.00;;;;;;5031206;28;20049;-49
2022/08/20 15:45:43;;;;;;;4.75;1.30;;;32.20;79.30;;;;;;5031449;28;20052;-49
2022/08/20 15:48:47;;;;;;;7.43;1.48;;;32.00;78.60;;;;;;5031295;28;20048;-52
2022/08/20 15:51:51;;;;;;;2.63;1.17;;;32.00;80.20;;;;;;5031035;28;20056;-51
2022/08/20 15:54:55;;;;;;;3.42;1.50;;;32.00;79.40;;;;;;5030890;28;20040;-51
2022/08/20 15:58:22;;;;;;;3.17;1.50;;;32.10;79.50;;;;;;5030952;28;20403;-52
2022/08/20 16:01:39;;;;;;;4.47;1.33;;;32.10;79.90;;;;;;5030894;28;20523;-53
2022/08/20 16:05:10;;;;;;;2.83;1.15;;;32.10;80.00;;;;;;5030376;28;20052;-47
2022/08/20 16:08:32;;;;;;;2.08;1.25;;;32.00;80.50;;;;;;5031088;28;20044;-54